createdAt,value
2023-01-15T00:00:35.606Z,21.30
2023-01-15T00:04:25.195Z,20.60
2023-01-15T00:08:09.749Z,18.40
2023-01-15T00:11:54.280Z,16.80
2023-01-15T00:15:23.465Z,15.50
2023-01-15T00:19:07.853Z,16.70
2023-01-15T00:22:52.340Z,16.60
2023-01-15T00:26:28.535Z,20.60
2023-01-15T00:30:05.882Z,16.10
2023-01-15T00:33:56.110Z,19.50
2023-01-15T00:37:40.581Z,17.10
2023-01-15T00:41:25.843Z,16.70
2023-01-15T00:45:12.148Z,18.80
2023-01-15T00:48:56.819Z,15.80
2023-01-15T00:52:41.207Z,17.80
2023-01-15T00:56:30.923Z,14.40
2023-01-15T01:00:15.427Z,17.90
2023-01-15T01:03:52.630Z,14.60
2023-01-15T01:07:37.185Z,16.00
2023-01-15T01:11:22.021Z,15.80
2023-01-15T01:15:06.676Z,13.80
2023-01-15T01:18:51.223Z,14.30
2023-01-15T01:22:35.667Z,14.70
2023-01-15T01:26:20.160Z,13.60
2023-01-15T01:30:03.548Z,16.80
2023-01-15T01:33:48.287Z,14.50
2023-01-15T01:37:32.897Z,13.40
2023-01-15T01:41:17.672Z,13.70
2023-01-15T01:45:13.822Z,13.60
2023-01-15T01:48:58.431Z,13.50
2023-01-15T01:52:45.892Z,16.00
2023-01-15T01:56:30.307Z,14.40
2023-01-15T02:00:13.805Z,14.30
2023-01-15T02:03:30.367Z,15.60
2023-01-15T02:07:14.887Z,17.50
2023-01-15T02:10:59.421Z,13.90
2023-01-15T02:14:46.687Z,15.10
2023-01-15T02:18:37.044Z,14.80
2023-01-15T02:22:24.504Z,15.40
2023-01-15T02:26:15.341Z,14.50
2023-01-15T02:33:35.940Z,14.30
2023-01-15T02:37:20.392Z,17.00
2023-01-15T02:41:03.859Z,15.60
2023-01-15T02:44:44.400Z,13.70
2023-01-15T02:48:28.908Z,14.50
2023-01-15T02:52:05.845Z,14.80
2023-01-15T02:56:05.141Z,12.60
2023-01-15T02:59:42.871Z,15.10
2023-01-15T03:03:27.337Z,15.80
2023-01-15T03:07:26.429Z,14.30
2023-01-15T03:10:56.492Z,14.30
2023-01-15T03:14:46.914Z,15.50
2023-01-15T03:18:40.347Z,15.30
2023-01-15T03:22:24.951Z,15.70
2023-01-15T03:25:51.522Z,13.90
2023-01-15T03:29:36.491Z,12.10
2023-01-15T03:33:20.959Z,12.60
2023-01-15T03:37:05.598Z,13.30
2023-01-15T03:40:42.817Z,13.00
2023-01-15T03:44:21.265Z,11.00
2023-01-15T03:48:03.963Z,11.30
2023-01-15T03:51:54.264Z,11.90
2023-01-15T03:55:35.825Z,11.20
2023-01-15T03:59:26.238Z,7.30
2023-01-15T04:03:10.936Z,10.00
2023-01-15T04:06:58.255Z,8.60
2023-01-15T04:10:42.616Z,10.20
2023-01-15T04:14:27.286Z,12.40
2023-01-15T04:18:11.757Z,9.70
2023-01-15T04:21:56.256Z,9.50
2023-01-15T04:25:40.677Z,10.40
2023-01-15T04:29:25.136Z,8.60
2023-01-15T04:33:10.906Z,8.50
2023-01-15T04:36:57.039Z,8.90
2023-01-15T04:40:40.766Z,8.70
2023-01-15T04:44:28.199Z,9.40
2023-01-15T04:48:13.593Z,11.10
2023-01-15T04:51:47.205Z,8.00
2023-01-15T04:55:31.774Z,9.30
2023-01-15T04:59:16.236Z,9.40
2023-01-15T05:02:50.605Z,7.30
2023-01-15T05:06:35.252Z,8.40
2023-01-15T05:10:12.303Z,8.50
2023-01-15T05:13:56.731Z,7.80
2023-01-15T05:17:26.022Z,7.40
2023-01-15T05:21:11.713Z,8.70
2023-01-15T05:24:56.429Z,7.30
2023-01-15T05:28:40.832Z,8.70
2023-01-15T05:32:25.427Z,5.80
2023-01-15T05:36:10.061Z,6.60
2023-01-15T05:39:54.590Z,7.90
2023-01-15T05:43:39.998Z,5.90
2023-01-15T05:47:25.212Z,5.20
2023-01-15T05:51:09.839Z,6.30
2023-01-15T05:54:54.491Z,6.40
2023-01-15T05:58:32.928Z,6.20
2023-01-15T06:02:17.582Z,7.10
2023-01-15T06:06:02.061Z,4.90
2023-01-15T06:09:46.531Z,7.90
2023-01-15T06:13:19.325Z,6.00
2023-01-15T06:17:03.738Z,5.10
2023-01-15T06:20:37.242Z,4.80
2023-01-15T06:24:14.736Z,4.80
2023-01-15T06:27:59.213Z,5.10
2023-01-15T06:31:36.513Z,6.10
2023-01-15T06:35:21.055Z,5.40
2023-01-15T06:39:05.627Z,4.40
2023-01-15T06:42:48.609Z,6.90
2023-01-15T06:46:30.284Z,6.10
2023-01-15T06:50:14.713Z,5.70
2023-01-15T06:53:41.863Z,6.10
2023-01-15T06:57:20.261Z,6.30
2023-01-15T07:01:03.766Z,5.20
2023-01-15T07:04:48.454Z,6.00
2023-01-15T07:08:21.481Z,5.00
2023-01-15T07:12:12.005Z,5.70
2023-01-15T07:15:49.774Z,5.90
2023-01-15T07:19:16.981Z,7.10
2023-01-15T07:23:02.001Z,7.70
2023-01-15T07:26:44.067Z,5.80
2023-01-15T07:30:28.523Z,4.80
2023-01-15T07:34:01.903Z,5.70
2023-01-15T07:37:47.092Z,4.70
2023-01-15T07:41:30.234Z,3.50
2023-01-15T07:45:13.170Z,5.60
2023-01-15T07:48:45.010Z,5.40
2023-01-15T07:52:18.163Z,5.50
2023-01-15T07:56:01.414Z,6.40
2023-01-15T07:59:37.616Z,5.70
2023-01-15T08:03:23.512Z,6.20
2023-01-15T08:06:46.439Z,6.40
2023-01-15T08:10:32.580Z,5.20
2023-01-15T08:14:16.076Z,7.10
2023-01-15T08:18:01.028Z,6.80
2023-01-15T08:21:44.646Z,5.70
2023-01-15T08:25:18.940Z,6.50
2023-01-15T08:29:03.409Z,7.90
2023-01-15T08:32:32.943Z,6.80
2023-01-15T08:36:08.308Z,5.00
2023-01-15T08:39:52.756Z,6.90
2023-01-15T08:43:37.392Z,5.40
2023-01-15T08:47:21.813Z,5.80
2023-01-15T08:51:09.336Z,4.50
2023-01-15T08:54:52.526Z,5.80
2023-01-15T08:58:37.839Z,7.90
2023-01-15T09:02:22.221Z,7.00
2023-01-15T09:05:55.500Z,6.20
2023-01-15T09:09:40.070Z,5.60
2023-01-15T09:13:06.999Z,5.70
2023-01-15T09:16:51.428Z,5.60
2023-01-15T09:20:24.344Z,5.00
2023-01-15T09:24:08.738Z,6.70
2023-01-15T09:27:54.301Z,5.00
2023-01-15T09:31:38.758Z,5.80
2023-01-15T09:35:23.165Z,5.30
2023-01-15T09:39:02.302Z,6.80
2023-01-15T09:42:58.529Z,7.10
2023-01-15T09:46:45.795Z,6.00
2023-01-15T09:50:45.214Z,6.00
2023-01-15T09:54:33.675Z,6.60
2023-01-15T09:58:18.166Z,8.60
2023-01-15T10:02:05.161Z,7.80
2023-01-15T10:05:58.596Z,7.40
2023-01-15T10:09:45.810Z,8.30
2023-01-15T10:13:25.300Z,8.80
2023-01-15T10:17:09.769Z,8.10
2023-01-15T10:20:56.832Z,9.70
2023-01-15T10:24:53.523Z,9.40
2023-01-15T10:28:37.934Z,11.90
2023-01-15T10:32:13.570Z,9.00
2023-01-15T10:36:04.594Z,10.50
2023-01-15T10:39:54.923Z,12.00
2023-01-15T10:43:54.578Z,9.50
2023-01-15T10:47:39.201Z,9.80
2023-01-15T10:51:25.800Z,9.40
2023-01-15T10:55:16.800Z,9.80
2023-01-15T10:59:01.689Z,9.80
2023-01-15T11:02:55.071Z,9.70
2023-01-15T11:06:40.128Z,9.70
2023-01-15T11:10:24.558Z,10.40
2023-01-15T11:14:17.114Z,12.40
2023-01-15T11:18:00.150Z,10.70
2023-01-15T11:21:44.822Z,11.50
2023-01-15T11:25:34.515Z,10.10
2023-01-15T11:29:11.031Z,10.00
2023-01-15T11:33:01.470Z,11.50
2023-01-15T11:36:48.847Z,12.30
2023-01-15T11:40:33.391Z,10.20
2023-01-15T11:44:17.486Z,12.40
2023-01-15T11:48:00.369Z,9.20
2023-01-15T11:51:53.623Z,8.30
2023-01-15T11:55:38.070Z,10.20
2023-01-15T11:59:25.410Z,11.00
2023-01-15T12:03:18.879Z,10.30
2023-01-15T12:07:03.909Z,10.90
2023-01-15T12:10:50.025Z,10.50
2023-01-15T12:15:16.710Z,10.20
2023-01-15T12:19:15.012Z,10.00
2023-01-15T12:23:09.151Z,10.80
2023-01-15T12:26:59.711Z,11.50
2023-01-15T12:30:54.005Z,12.10
2023-01-15T12:34:36.367Z,13.80
2023-01-15T12:38:39.233Z,11.60
2023-01-15T12:42:30.894Z,13.30
2023-01-15T12:46:18.480Z,14.40
2023-01-15T12:50:13.054Z,12.70
2023-01-15T12:53:39.602Z,11.30
2023-01-15T12:57:36.159Z,11.40
2023-01-15T13:01:20.856Z,13.90
2023-01-15T13:05:05.588Z,11.90
2023-01-15T13:08:40.770Z,14.00
2023-01-15T13:12:25.487Z,13.50
2023-01-15T13:15:59.791Z,13.30
2023-01-15T13:20:02.397Z,12.40
2023-01-15T13:23:45.370Z,16.30
2023-01-15T13:27:51.190Z,13.80
2023-01-15T13:31:53.976Z,12.70
2023-01-15T13:35:47.337Z,12.00
2023-01-15T13:39:30.521Z,13.30
2023-01-15T13:43:15.749Z,11.70
2023-01-15T13:47:00.915Z,13.60
2023-01-15T13:50:48.126Z,12.40
2023-01-15T13:54:32.512Z,15.10
2023-01-15T13:58:25.683Z,16.00
2023-01-15T14:02:19.114Z,14.60
2023-01-15T14:06:18.812Z,11.50
2023-01-15T14:10:04.266Z,14.30
2023-01-15T14:13:47.077Z,12.40
2023-01-15T14:17:37.397Z,13.00
2023-01-15T14:21:27.621Z,15.30
2023-01-15T14:25:23.042Z,13.60
2023-01-15T14:29:11.405Z,15.20
2023-01-15T14:33:31.860Z,12.80
2023-01-15T14:37:21.971Z,12.40
2023-01-15T14:41:10.529Z,13.50
2023-01-15T14:44:55.933Z,12.80
2023-01-15T14:48:49.799Z,14.70
2023-01-15T14:52:33.246Z,17.20
2023-01-15T14:56:29.530Z,16.50
2023-01-15T15:00:16.787Z,17.20
2023-01-15T15:04:01.633Z,16.70
2023-01-15T15:07:46.302Z,16.80
2023-01-15T15:11:33.615Z,18.40
2023-01-15T15:15:18.021Z,16.90
2023-01-15T15:18:59.721Z,17.20
2023-01-15T15:22:45.472Z,16.60
2023-01-15T15:26:30.158Z,16.20
2023-01-15T15:30:07.461Z,17.80
2023-01-15T15:33:44.674Z,16.50
2023-01-15T15:37:17.768Z,16.70
2023-01-15T15:41:05.215Z,15.80
2023-01-15T15:45:02.932Z,15.60
2023-01-15T15:49:02.047Z,15.20
2023-01-15T15:52:58.459Z,17.30
2023-01-15T15:56:43.624Z,14.50
2023-01-15T16:00:34.072Z,18.10
2023-01-15T16:04:18.684Z,15.90
2023-01-15T16:08:03.277Z,17.20
2023-01-15T16:11:29.530Z,15.80
2023-01-15T16:15:06.867Z,18.40
2023-01-15T16:18:47.626Z,15.90
2023-01-15T16:22:27.767Z,20.50
2023-01-15T16:26:21.154Z,18.70
2023-01-15T16:30:05.603Z,13.40
2023-01-15T16:33:50.079Z,16.60
2023-01-15T16:37:27.130Z,19.30
2023-01-15T16:41:40.686Z,17.40
2023-01-15T16:45:27.900Z,18.30
2023-01-15T16:49:15.070Z,15.60
2023-01-15T16:52:59.585Z,18.40
2023-01-15T16:56:42.836Z,17.30
2023-01-15T17:00:36.005Z,15.90
2023-01-15T17:04:20.719Z,18.70
2023-01-15T17:08:18.638Z,20.50
2023-01-15T17:12:06.917Z,16.10
2023-01-15T17:15:56.948Z,18.30
2023-01-15T17:19:45.839Z,14.90
2023-01-15T17:23:31.720Z,14.10
2023-01-15T17:27:22.565Z,12.30
2023-01-15T17:31:07.381Z,13.30
2023-01-15T17:34:52.004Z,13.30
2023-01-15T17:38:28.925Z,12.50
2023-01-15T17:42:13.505Z,15.40
2023-01-15T17:46:01.537Z,18.20
2023-01-15T17:49:46.192Z,17.70
2023-01-15T17:53:30.743Z,15.60
2023-01-15T17:57:13.409Z,13.30
2023-01-15T18:00:56.515Z,13.20
2023-01-15T18:04:40.174Z,13.80
2023-01-15T18:08:05.831Z,11.20
2023-01-15T18:11:50.555Z,11.60
2023-01-15T18:15:34.690Z,10.10
2023-01-15T18:19:11.740Z,12.40
2023-01-15T18:22:55.145Z,12.00
2023-01-15T18:26:32.490Z,14.80
2023-01-15T18:30:17.052Z,11.60
2023-01-15T18:34:01.643Z,10.60
2023-01-15T18:37:46.241Z,12.50
2023-01-15T18:41:30.700Z,11.50
2023-01-15T18:45:14.498Z,12.60
2023-01-15T18:48:47.845Z,12.30
2023-01-15T18:52:30.752Z,11.10
2023-01-15T18:56:15.250Z,12.40
2023-01-15T18:59:59.683Z,12.60
2023-01-15T19:03:44.156Z,15.90
2023-01-15T19:07:29.637Z,13.50
2023-01-15T19:11:14.136Z,15.80
2023-01-15T19:14:49.414Z,14.50
2023-01-15T19:18:32.795Z,15.60
2023-01-15T19:21:46.761Z,14.90
2023-01-15T19:25:31.213Z,16.50
2023-01-15T19:29:15.684Z,14.60
2023-01-15T19:33:00.255Z,17.10
2023-01-15T19:36:44.819Z,13.40
2023-01-15T19:40:43.690Z,15.00
2023-01-15T19:44:26.740Z,12.60
2023-01-15T19:48:15.548Z,14.80
2023-01-15T19:51:58.552Z,13.10
2023-01-15T19:55:43.912Z,14.10
2023-01-15T19:59:28.709Z,13.10
2023-01-15T20:03:13.514Z,14.20
2023-01-15T20:06:57.197Z,13.00
2023-01-15T20:10:29.644Z,17.10
2023-01-15T20:14:14.530Z,16.50
2023-01-15T20:17:58.041Z,16.10
2023-01-15T20:21:41.240Z,18.30
2023-01-15T20:25:24.521Z,19.60
2023-01-15T20:29:09.283Z,20.90
2023-01-15T20:32:52.636Z,17.40
2023-01-15T20:36:37.292Z,14.40
2023-01-15T20:40:14.472Z,15.70
2023-01-15T20:43:47.155Z,13.60
2023-01-15T20:47:29.940Z,14.70
2023-01-15T20:51:23.515Z,13.60
2023-01-15T20:54:56.961Z,14.20
2023-01-15T20:58:41.471Z,13.50
2023-01-15T21:02:09.237Z,14.10
2023-01-15T21:05:53.959Z,15.40
2023-01-15T21:09:40.017Z,14.90
2023-01-15T21:13:24.736Z,15.90
2023-01-15T21:17:15.151Z,15.80
2023-01-15T21:24:24.215Z,15.10
2023-01-15T21:28:09.905Z,14.20
2023-01-15T21:31:55.123Z,10.80
2023-01-15T21:35:39.736Z,15.20
2023-01-15T21:39:26.248Z,12.50
2023-01-15T21:43:11.569Z,15.20
2023-01-15T21:47:02.035Z,12.80
2023-01-15T21:50:46.775Z,13.00
2023-01-15T21:54:32.398Z,12.30
2023-01-15T21:58:16.865Z,12.50
2023-01-15T22:02:02.771Z,17.00
2023-01-15T22:06:11.393Z,13.30
2023-01-15T22:09:55.899Z,13.40
2023-01-15T22:13:34.266Z,11.70
2023-01-15T22:17:19.766Z,10.20
2023-01-15T22:21:04.452Z,12.00
2023-01-15T22:24:50.203Z,9.30
2023-01-15T22:28:34.585Z,10.60
2023-01-15T22:32:21.441Z,8.50
2023-01-15T22:35:44.508Z,9.90
2023-01-15T22:39:28.889Z,10.40
2023-01-15T22:43:13.443Z,9.50
2023-01-15T22:46:57.977Z,6.50
2023-01-15T22:50:35.347Z,7.20
2023-01-15T22:54:19.839Z,7.90
2023-01-15T22:58:03.294Z,6.90
2023-01-15T23:01:36.531Z,8.10
2023-01-15T23:05:21.055Z,8.20
2023-01-15T23:09:03.960Z,7.30
2023-01-15T23:12:50.193Z,9.20
2023-01-15T23:16:37.203Z,8.10
2023-01-15T23:20:24.120Z,7.30
2023-01-15T23:24:09.581Z,8.60
2023-01-15T23:27:54.048Z,8.20
2023-01-15T23:31:38.630Z,7.30
2023-01-15T23:35:23.330Z,7.50
2023-01-15T23:39:09.766Z,6.50
2023-01-15T23:42:52.386Z,6.90
2023-01-15T23:46:35.509Z,7.30
2023-01-15T23:50:20.258Z,6.10
2023-01-15T23:54:05.791Z,5.90
2023-01-15T23:57:51.500Z,6.60
